Latest Weather Observations for Hervey Bay

IDQ60801

Issued at 1:35 pm EST Sunday 21 September 2014 (issued every 30 minutes, with the page automatically refreshed every 10 minutes)

About weather observations | Map of weather stations | Latest weather observations for QLD | Other Formats
Station Details ID: 040405 Name: HERVEY BAY AIRPORT Lat: -25.32 Lon: 152.88 Height: 12.98 m
Data from the previous 72 hours. | See also: Recent months at Hervey Bay
Date/Time
EST
Temp
°C
App
Temp
°C
Dew
Point
Rel
Hum
%
Delta-T
°C
Wind Press
QNH
hPa
Press
MSL
hPa
Rain
since 9 am
mm
Dir
 
Spd
km/h
Gust
km/h
Spd
kts
Gust
kts
21/01:30pm 22.3 17.9 12.8 55 5.4 ESE 28 35 15 19 1022.8 1022.7 0.0
21/01:00pm 23.4 19.6 11.1 46 6.8 ESE 22 33 12 18 1023.1 1023.0 0.0
21/12:30pm 22.6 18.3 12.0 51 6.0 ESE 26 35 14 19 1023.5 1023.4 0.0
21/12:00pm 22.9 18.8 11.6 49 6.3 ESE 24 35 13 19 1023.7 1023.6 0.0
21/11:30am 22.0 18.1 12.0 53 5.6 SE 24 39 13 21 1024.0 1023.9 0.0
21/11:00am 21.6 17.7 12.2 55 5.3 ESE 24 39 13 21 1024.1 1024.0 0.0
21/10:30am 22.3 17.7 13.4 57 5.1 ESE 30 41 16 22 1024.3 1024.2 0.0
21/10:00am 21.5 17.6 13.4 60 4.6 ESE 26 37 14 20 1024.6 1024.5 0.0
21/09:30am 21.4 18.9 14.1 63 4.2 ESE 20 33 11 18 1024.9 1024.8 0.0
21/09:00am 20.6 18.2 14.5 68 3.5 ESE 20 32 11 17 1024.9 1024.8 2.8
21/08:30am 20.2 19.4 15.2 73 2.9 SE 13 19 7 10 1024.7 1024.6 2.8
21/08:00am 19.3 19.1 15.6 79 2.2 SSE 11 17 6 9 1024.5 1024.4 2.8
21/07:30am 18.8 18.5 15.5 81 1.9 S 11 20 6 11 1024.2 1024.1 2.8
21/07:00am 17.4 16.8 15.6 89 1.1 S 13 20 7 11 1023.8 1023.7 2.8
21/06:30am 16.6 16.7 15.5 93 0.6 SSW 9 15 5 8 1023.4 1023.3 2.8
21/06:00am 16.5 16.2 15.4 93 0.6 SSW 11 15 6 8 1023.3 1023.2 2.8
21/05:30am 16.5 16.9 15.2 92 0.8 S 7 9 4 5 1023.2 1023.1 2.8
21/05:00am 16.7 16.4 15.4 92 0.8 SSW 11 15 6 8 1022.9 1022.8 2.8
21/04:30am 17.1 16.2 14.9 87 1.3 ESE 13 20 7 11 1022.7 1022.6 2.8
21/04:00am 16.9 16.5 15.1 89 1.0 SE 11 17 6 9 1022.5 1022.4 2.8
21/03:30am 16.7 15.9 15.1 90 0.9 SE 13 17 7 9 1022.3 1022.2 2.8
21/03:00am 16.7 15.5 15.1 90 0.9 SSE 15 20 8 11 1022.3 1022.2 2.8
21/02:30am 17.3 17.1 14.8 85 1.4 ESE 9 13 5 7 1022.3 1022.2 2.8
21/02:00am 17.2 16.4 15.2 88 1.2 E 13 19 7 10 1022.6 1022.5 2.8
21/01:30am 17.0 14.6 15.5 91 0.9 E 22 28 12 15 1022.6 1022.5 2.4
21/01:23am 17.0 15.0 15.5 91 0.9 E 20 28 11 15 1022.7 1022.6 2.0
21/01:09am 16.8 15.2 15.0 89 1.0 SE 17 24 9 13 1022.9 1022.8 1.2
21/01:00am 17.4 16.1 14.9 85 1.4 SE 15 22 8 12 1022.9 1022.8 0.0
21/12:30am 18.5 18.0 14.8 79 2.2 SSE 11 17 6 9 1022.9 1022.8 0.0
21/12:00am 18.6 17.6 14.7 78 2.3 ESE 13 19 7 10 1022.7 1022.6 0.0
 
Date/Time
EST
Temp
°C
App
Temp
°C
Dew
Point
Rel
Hum
%
Delta-T
°C
Wind Press
QNH
hPa
Press
MSL
hPa
Rain
since 9 am
mm
Dir
 
Spd
km/h
Gust
km/h
Spd
kts
Gust
kts
20/11:30pm 19.2 17.8 14.5 74 2.7 SE 15 24 8 13 1022.8 1022.7 0.0
20/11:00pm 19.2 18.6 14.7 75 2.6 ESE 11 17 6 9 1022.7 1022.6 0.0
20/10:30pm 18.9 17.4 15.4 80 2.1 ESE 17 28 9 15 1022.8 1022.7 0.0
20/10:00pm 18.9 17.4 15.4 80 2.1 E 17 24 9 13 1022.8 1022.7 0.0
20/09:30pm 19.1 17.6 15.2 78 2.3 SE 17 26 9 14 1022.5 1022.4 0.0
20/09:00pm 19.9 19.4 14.9 73 2.9 SSE 11 17 6 9 1022.4 1022.3 0.0
20/08:30pm 20.4 20.0 14.1 67 3.6 SE 9 15 5 8 1021.8 1021.7 0.0
20/08:00pm 20.9 20.3 13.6 63 4.2 E 9 11 5 6 1021.5 1021.4 0.0
20/07:30pm 20.7 20.5 13.6 64 4.1 E 7 11 4 6 1021.2 1021.1 0.0
20/07:00pm 21.1 20.1 13.5 62 4.4 E 11 15 6 8 1020.4 1020.3 0.0
20/06:30pm 21.2 21.2 14.1 64 4.1 NE 7 13 4 7 1019.8 1019.7 0.0
20/06:00pm 20.7 20.3 14.1 66 3.8 N 9 15 5 8 1019.2 1019.1 0.0
20/05:30pm 21.3 19.2 13.5 61 4.5 N 17 20 9 11 1018.4 1018.3 0.0
20/05:00pm 22.0 19.9 13.6 59 4.8 NNE 17 20 9 11 1018.1 1018.0 0.0
20/04:30pm 22.9 20.5 13.7 56 5.4 N 19 26 10 14 1017.8 1017.7 0.0
20/04:00pm 22.8 20.1 13.0 54 5.6 N 19 26 10 14 1017.5 1017.4 0.0
20/03:30pm 23.6 21.2 13.8 54 5.7 NNE 19 26 10 14 1017.5 1017.4 0.0
20/03:00pm 23.2 20.3 12.8 52 6.0 NNE 20 28 11 15 1017.5 1017.4 0.0
20/02:30pm 24.5 21.7 13.1 49 6.6 N 20 26 11 14 1017.5 1017.4 0.0
20/02:00pm 24.0 20.9 11.7 46 6.9 N 19 26 10 14 1017.8 1017.7 0.0
20/01:30pm 24.2 20.6 11.9 46 7.0 N 22 28 12 15 1018.2 1018.1 0.0
20/01:00pm 24.7 22.8 13.0 48 6.8 N 15 24 8 13 1018.5 1018.4 0.0
20/12:30pm 23.9 20.9 11.9 47 6.8 N 19 26 10 14 1018.9 1018.8 0.0
20/12:00pm 24.3 21.8 12.3 47 6.8 N 17 24 9 13 1019.3 1019.2 0.0
20/11:30am 24.1 21.5 12.1 47 6.8 N 17 24 9 13 1019.8 1019.7 0.0
20/11:00am 23.9 21.3 11.9 47 6.8 N 17 26 9 14 1020.2 1020.1 0.0
20/10:30am 23.5 21.2 11.9 48 6.6 N 15 26 8 14 1020.5 1020.4 0.0
20/10:00am 23.7 21.2 12.4 49 6.4 N 17 24 9 13 1020.8 1020.7 0.0
20/09:30am 22.7 21.0 12.6 53 5.8 NNW 13 19 7 10 1021.1 1021.0 0.0
20/09:00am 22.0 22.7 15.6 67 3.8 WNW 6 9 3 5 1021.1 1021.0 0.0
20/08:30am 20.8 22.5 15.1 70 3.4 CALM 0 0 0 0 1021.0 1020.9 0.0
20/08:00am 19.9 21.6 15.3 75 2.7 CALM 0 0 0 0 1020.8 1020.7 0.0
20/07:30am 17.9 18.4 15.0 83 1.7 SSW 6 7 3 4 1020.4 1020.3 0.0
20/07:00am 16.3 17.9 15.0 92 0.7 CALM 0 0 0 0 1020.0 1019.9 0.0
20/06:30am 14.3 15.3 13.3 94 0.6 CALM 0 0 0 0 1019.7 1019.6 0.0
20/06:00am 13.5 14.0 12.7 95 0.4 SSW 2 6 1 3 1019.4 1019.3 0.0
20/05:30am 13.3 13.8 12.7 96 0.3 SSW 2 7 1 4 1019.1 1019.0 0.0
20/05:00am 12.9 11.9 12.3 96 0.3 SSW 9 11 5 6 1018.7 1018.6 0.0
20/04:30am 11.3 11.5 10.4 94 0.5 CALM 0 0 0 0 1018.3 1018.2 0.0
20/04:00am 11.4 11.6 10.5 94 0.5 CALM 0 0 0 0 1018.1 1018.0 0.0
20/03:30am 11.6 11.8 10.5 93 0.6 CALM 0 0 0 0 1017.9 1017.8 0.0
20/03:00am 11.7 11.9 10.4 92 0.7 CALM 0 0 0 0 1017.9 1017.8 0.0
20/02:30am 11.8 12.0 10.5 92 0.7 CALM 0 0 0 0 1018.0 1017.9 0.0
20/02:00am 12.0 12.2 10.6 91 0.7 CALM 0 0 0 0 1018.2 1018.1 0.0
20/01:30am 12.3 12.6 10.9 91 0.7 CALM 0 0 0 0 1018.5 1018.4 0.0
20/01:00am 12.5 12.9 11.1 91 0.7 CALM 0 0 0 0 1018.8 1018.7 0.0
20/12:30am 13.0 13.5 11.7 92 0.7 CALM 0 0 0 0 1019.2 1019.1 0.0
20/12:00am 13.5 14.3 12.4 93 0.6 CALM 0 0 0 0 1019.5 1019.4 0.0
 
Date/Time
EST
Temp
°C
App
Temp
°C
Dew
Point
Rel
Hum
%
Delta-T
°C
Wind Press
QNH
hPa
Press
MSL
hPa
Rain
since 9 am
mm
Dir
 
Spd
km/h
Gust
km/h
Spd
kts
Gust
kts
19/11:30pm 13.5 13.0 11.9 90 0.9 S 6 7 3 4 1019.6 1019.5 0.0
19/11:00pm 14.1 14.5 12.5 90 0.9 SSW 2 6 1 3 1019.5 1019.4 0.0
19/10:30pm 14.5 15.3 12.4 87 1.1 CALM 0 2 0 1 1019.5 1019.4 0.0
19/10:00pm 15.1 15.0 12.1 82 1.6 E 4 9 2 5 1019.4 1019.3 0.0
19/09:30pm 16.7 16.3 12.3 75 2.4 E 6 7 3 4 1019.5 1019.4 0.0
19/09:00pm 19.4 18.6 12.9 66 3.7 NNE 9 13 5 7 1019.4 1019.3 0.0
19/08:30pm 19.9 18.3 12.7 63 4.1 N 13 20 7 11 1019.3 1019.2 0.0
19/08:00pm 20.2 18.4 13.2 64 4.0 NNE 15 20 8 11 1019.2 1019.1 0.0
19/07:30pm 20.0 18.5 13.2 65 3.9 NNE 13 19 7 10 1018.7 1018.6 0.0
19/07:00pm 20.2 18.3 12.9 63 4.1 NNE 15 19 8 10 1018.4 1018.3 0.0
19/06:30pm 20.6 18.2 12.6 60 4.5 NNE 17 22 9 12 1017.9 1017.8 0.0
19/06:00pm 20.9 18.5 12.6 59 4.7 NNE 17 22 9 12 1017.5 1017.4 0.0
19/05:30pm 21.1 19.1 12.8 59 4.7 N 15 22 8 12 1017.3 1017.2 0.0
19/05:00pm 21.7 19.1 13.1 58 4.9 N 19 26 10 14 1016.9 1016.8 0.0
19/04:30pm 22.2 19.6 13.3 57 5.1 N 19 26 10 14 1016.7 1016.6 0.0
19/04:00pm 22.7 20.2 13.5 56 5.3 N 19 24 10 13 1016.4 1016.3 0.0
19/03:30pm 23.6 20.6 12.0 48 6.6 N 19 26 10 14 1016.4 1016.3 0.0
19/03:00pm 23.5 20.1 11.2 46 6.9 N 20 28 11 15 1016.5 1016.4 0.0
19/02:30pm 24.0 20.1 9.6 40 7.8 N 20 30 11 16 1016.9 1016.8 0.0
19/02:00pm 24.5 20.8 9.6 39 8.1 N 19 28 10 15 1017.1 1017.0 0.0
19/01:30pm 24.2 20.2 8.2 36 8.5 N 19 24 10 13 1017.6 1017.5 0.0
19/01:00pm 24.2 20.1 8.6 37 8.3 N 20 28 11 15 1018.1 1018.0 0.0
19/12:30pm 24.2 21.2 11.9 46 7.0 NNW 19 30 10 16 1018.7 1018.6 0.0
19/12:00pm 24.0 20.9 11.7 46 6.9 NNW 19 28 10 15 1019.3 1019.2 0.0
19/11:30am 23.5 21.0 11.2 46 6.9 N 15 24 8 13 1020.0 1019.9 0.0
19/11:00am 23.2 20.6 10.6 45 6.9 N 15 28 8 15 1020.3 1020.2 0.0
19/10:30am 23.5 21.0 11.2 46 6.9 N 15 20 8 11 1020.7 1020.6 0.0
19/10:00am 23.3 20.9 11.4 47 6.6 E 15 20 8 11 1021.1 1021.0 0.0
19/09:30am 22.6 21.0 11.4 49 6.3 NE 11 15 6 8 1021.4 1021.3 0.0
19/09:00am 22.3 22.4 12.8 55 5.4 ENE 4 11 2 6 1021.5 1021.4 0.0
19/08:30am 20.0 19.3 11.5 58 4.7 SSE 6 9 3 5 1021.6 1021.5 0.0
19/08:00am 17.8 16.8 11.1 65 3.6 SSW 7 9 4 5 1021.5 1021.4 0.0
19/07:30am 15.9 14.7 10.4 70 2.9 SSW 7 9 4 5 1021.3 1021.2 0.0
19/07:00am 14.0 12.7 10.0 77 2.1 WSW 7 9 4 5 1021.0 1020.9 0.0
19/06:30am 11.7 10.7 10.3 91 0.7 WSW 6 7 3 4 1020.8 1020.7 0.0
19/06:00am 9.8 8.3 8.6 92 0.6 SW 6 7 3 4 1020.4 1020.3 0.0
19/05:30am 9.2 8.7 8.0 92 0.6 CALM 0 0 0 0 1020.2 1020.1 0.0
19/05:00am 9.1 7.9 8.0 93 0.5 SSW 4 7 2 4 1019.9 1019.8 0.0
19/04:30am 9.5 9.1 8.1 91 0.7 CALM 0 0 0 0 1019.5 1019.4 0.0
19/04:00am 10.2 9.9 8.6 90 0.8 CALM 0 6 0 3 1019.3 1019.2 0.0
19/03:30am 10.1 8.7 8.7 91 0.7 SSW 6 9 3 5 1019.2 1019.1 0.0
19/03:00am 9.5 7.8 8.4 93 0.5 SSW 7 9 4 5 1019.2 1019.1 0.0
19/02:30am 9.6 7.6 8.7 94 0.4 SSW 9 11 5 6 1019.1 1019.0 0.0
19/02:00am 9.7 9.0 8.6 93 0.5 SSW 2 6 1 3 1019.3 1019.2 0.0
19/01:30am 9.8 9.6 8.9 94 0.4 CALM 0 0 0 0 1019.4 1019.3 0.0
19/01:00am 9.9 9.6 8.8 93 0.5 CALM 0 0 0 0 1019.6 1019.5 0.0
19/12:30am 10.1 9.9 9.0 93 0.5 CALM 0 0 0 0 1019.7 1019.6 0.0
19/12:00am 10.0 8.6 8.8 92 0.6 SSW 6 7 3 4 1019.7 1019.6 0.0
 
Date/Time
EST
Temp
°C
App
Temp
°C
Dew
Point
Rel
Hum
%
Delta-T
°C
Wind Press
QNH
hPa
Press
MSL
hPa
Rain
since 9 am
mm
Dir
 
Spd
km/h
Gust
km/h
Spd
kts
Gust
kts
18/11:30pm 10.6 9.4 9.4 92 0.6 SSW 6 6 3 3 1019.7 1019.6 0.0
18/11:00pm 10.6 10.4 9.0 90 0.8 CALM 0 0 0 0 1019.7 1019.6 0.0
18/10:30pm 10.9 10.8 9.5 91 0.7 CALM 0 0 0 0 1019.6 1019.5 0.0
18/10:00pm 11.3 11.3 9.9 91 0.7 CALM 0 0 0 0 1019.6 1019.5 0.0
18/09:30pm 11.7 11.8 10.1 90 0.8 CALM 0 7 0 4 1019.6 1019.5 0.0
18/09:00pm 12.0 12.0 9.9 87 1.1 CALM 0 0 0 0 1019.4 1019.3 0.0
18/08:30pm 12.7 12.4 10.1 84 1.3 WSW 2 7 1 4 1019.3 1019.2 0.0
18/08:00pm 13.7 13.8 10.3 80 1.8 CALM 0 0 0 0 1019.0 1018.9 0.0
18/07:30pm 15.8 14.4 9.7 67 3.2 E 7 9 4 5 1018.7 1018.6 0.0
18/07:00pm 18.2 15.8 8.5 53 5.0 E 11 15 6 8 1018.2 1018.1 0.0
18/06:30pm 19.8 17.7 8.2 47 6.0 E 9 15 5 8 1017.8 1017.7 0.0
18/06:00pm 20.4 16.6 7.7 44 6.5 ENE 17 20 9 11 1017.4 1017.3 0.0
18/05:30pm 21.1 17.0 7.7 42 6.9 E 19 24 10 13 1017.0 1016.9 0.0
18/05:00pm 22.0 17.4 6.7 37 7.8 E 20 26 11 14 1016.6 1016.5 0.0
18/04:30pm 22.8 18.1 7.8 38 7.9 E 22 28 12 15 1016.2 1016.1 0.0
18/04:00pm 23.8 19.3 7.0 34 8.7 E 20 30 11 16 1015.9 1015.8 0.0
18/03:30pm 24.5 20.1 7.2 33 9.1 E 20 28 11 15 1015.7 1015.6 0.0
18/03:00pm 24.7 20.2 6.9 32 9.3 E 20 26 11 14 1015.7 1015.6 0.0
18/02:30pm 24.7 19.9 7.4 33 9.1 ESE 22 30 12 16 1015.8 1015.7 0.0
18/02:00pm 24.6 19.6 6.4 31 9.4 ESE 22 30 12 16 1016.1 1016.0 0.0

Other Formats:

Comma delimited format used in spreadsheet applications
http://www.bom.gov.au/fwo/IDQ60801/IDQ60801.95565.axf

JavaScript Object Notation format (JSON) in row-major order
http://www.bom.gov.au/fwo/IDQ60801/IDQ60801.95565.json